KJHN

Stanton County Municipal Airport

Johnson, Kansas, USA
METAR KJHN 221515Z AUTO 14013KT 10SM CLR 23/11 A3000 RMK AO2 T02260107
Observed Flight Rules
May-22 @ 15:15 UTC (18 minutes ago) Visual Flight Rules
Wind Visibility Clouds
140° at 13 knots 10 miles
  • Clear skies
Temperatures Readings
Current 23°C / 73°F
Dewpoint 11°C / 52°F
Humidity 47%
Altimeter 30" Hg
Pressure 1016 hPa
Elevation 1013
METAR KJHN 221515Z AUTO 14013KT 10SM CLR 23/11 A3000 RMK AO2 T02260107
Observed Flight Rules
May-22 @ 15:15 UTC
(18 minutes ago)
VFR
Wind Visibility
140° at 13 knots 10 miles
Clouds
  • Clear skies
Temperature Dewpoint
23°C / 73°F 11°C / 52°F
Humidity Altimeter Pressure
47% 30" Hg 1016 hPa